createdAt,value
2022-12-18T00:01:19.431Z,57.28
2022-12-18T00:03:21.454Z,56.87
2022-12-18T00:05:23.628Z,56.65
2022-12-18T00:07:28.692Z,57.36
2022-12-18T00:09:31.340Z,58.19
2022-12-18T00:11:41.996Z,58.03
2022-12-18T00:13:44.515Z,58.17
2022-12-18T00:15:46.360Z,58.06
2022-12-18T00:17:52.040Z,57.53
2022-12-18T00:19:53.734Z,57.34
2022-12-18T00:21:55.550Z,56.47
2022-12-18T00:24:00.246Z,56.18
2022-12-18T00:26:03.051Z,55.89
2022-12-18T00:28:05.291Z,55.77
2022-12-18T00:30:08.010Z,56.28
2022-12-18T00:32:09.745Z,56.99
2022-12-18T00:34:14.256Z,57.87
2022-12-18T00:36:20.084Z,57.83
2022-12-18T00:38:21.687Z,57.57
2022-12-18T00:40:23.570Z,58.27
2022-12-18T00:42:25.559Z,57.84
2022-12-18T00:44:27.690Z,57.82
2022-12-18T00:46:29.549Z,57.09
2022-12-18T00:48:31.449Z,57.14
2022-12-18T00:50:34.662Z,56.77
2022-12-18T00:52:36.445Z,56.69
2022-12-18T00:54:38.241Z,56.68
2022-12-18T00:56:48.165Z,56.88
2022-12-18T00:58:50.900Z,56.61
2022-12-18T01:00:54.049Z,57.18
2022-12-18T01:02:55.931Z,56.85
2022-12-18T01:04:57.944Z,56.72
2022-12-18T01:07:01.360Z,57.34
2022-12-18T01:09:03.648Z,57.27
2022-12-18T01:11:09.435Z,57.77
2022-12-18T01:13:11.308Z,57.48
2022-12-18T01:15:15.362Z,57.78
2022-12-18T01:17:17.058Z,57.96
2022-12-18T01:19:19.090Z,58.20
2022-12-18T01:21:21.114Z,58.35
2022-12-18T01:23:24.657Z,58.64
2022-12-18T01:25:26.366Z,58.58
2022-12-18T01:27:28.140Z,58.39
2022-12-18T01:29:31.758Z,58.94
2022-12-18T01:31:35.155Z,58.07
2022-12-18T01:33:37.579Z,56.96
2022-12-18T01:35:42.113Z,56.10
2022-12-18T01:37:43.826Z,55.35
2022-12-18T01:39:47.132Z,54.96
2022-12-18T01:41:49.087Z,54.65
2022-12-18T01:43:53.613Z,54.07
2022-12-18T01:45:55.311Z,53.70
2022-12-18T01:48:03.981Z,53.51
2022-12-18T01:50:09.543Z,53.13
2022-12-18T01:52:11.618Z,52.84
2022-12-18T01:54:13.678Z,53.01
2022-12-18T01:56:18.902Z,52.98
2022-12-18T01:58:24.247Z,54.21
2022-12-18T02:00:27.195Z,54.62
2022-12-18T02:02:30.840Z,53.59
2022-12-18T02:04:34.775Z,53.49
2022-12-18T02:06:42.440Z,53.22
2022-12-18T02:08:56.579Z,54.44
2022-12-18T02:11:07.790Z,55.59
2022-12-18T02:13:16.263Z,56.57
2022-12-18T02:15:24.153Z,55.70
2022-12-18T02:17:34.801Z,55.73
2022-12-18T02:19:48.293Z,55.47
2022-12-18T02:21:58.754Z,54.69
2022-12-18T02:24:15.326Z,53.97
2022-12-18T02:26:27.267Z,53.26
2022-12-18T02:28:34.516Z,53.02
2022-12-18T02:30:38.743Z,53.47
2022-12-18T02:32:44.346Z,52.92
2022-12-18T02:34:48.591Z,52.86
2022-12-18T02:36:52.866Z,52.88
2022-12-18T02:38:58.697Z,54.23
2022-12-18T02:41:01.471Z,54.98
2022-12-18T02:43:11.107Z,55.15
2022-12-18T02:45:12.897Z,54.97
2022-12-18T02:47:18.037Z,54.33
2022-12-18T02:49:41.111Z,53.98
2022-12-18T02:51:51.707Z,53.56
2022-12-18T02:54:02.302Z,54.17
2022-12-18T02:56:09.915Z,55.34
2022-12-18T02:58:17.506Z,55.23
2022-12-18T03:00:22.968Z,55.68
2022-12-18T03:02:32.347Z,54.75
2022-12-18T03:04:43.398Z,54.24
2022-12-18T03:06:49.588Z,53.82
2022-12-18T03:08:59.198Z,53.47
2022-12-18T03:11:05.453Z,53.27
2022-12-18T03:13:11.627Z,53.41
2022-12-18T03:15:19.726Z,52.79
2022-12-18T03:17:25.684Z,52.89
2022-12-18T03:19:30.862Z,52.44
2022-12-18T03:21:38.104Z,52.16
2022-12-18T03:23:45.650Z,52.05
2022-12-18T03:25:48.905Z,52.08
2022-12-18T03:27:55.850Z,52.04
2022-12-18T03:30:03.868Z,52.13
2022-12-18T03:32:11.783Z,52.74
2022-12-18T03:34:18.771Z,53.29
2022-12-18T03:36:20.823Z,54.43
2022-12-18T03:38:22.884Z,54.32
2022-12-18T03:40:32.711Z,54.31
2022-12-18T03:42:42.978Z,53.85
2022-12-18T03:44:53.903Z,53.60
2022-12-18T03:47:02.835Z,53.17
2022-12-18T03:49:12.777Z,52.90
2022-12-18T03:51:20.277Z,52.48
2022-12-18T03:53:32.376Z,52.18
2022-12-18T03:55:35.917Z,52.00
2022-12-18T03:57:39.137Z,52.45
2022-12-18T03:59:42.471Z,52.26
2022-12-18T04:01:49.200Z,51.79
2022-12-18T04:03:52.365Z,51.86
2022-12-18T04:05:56.746Z,51.62
2022-12-18T04:07:59.007Z,51.76
2022-12-18T04:10:02.395Z,51.51
2022-12-18T04:12:04.836Z,51.83
2022-12-18T04:14:07.458Z,51.17
2022-12-18T04:16:09.818Z,51.03
2022-12-18T04:18:11.811Z,50.32
2022-12-18T04:20:13.702Z,50.44
2022-12-18T04:22:17.222Z,50.48
2022-12-18T04:24:18.873Z,50.83
2022-12-18T04:26:20.777Z,50.59
2022-12-18T04:28:22.863Z,50.71
2022-12-18T04:30:24.672Z,51.13
2022-12-18T04:32:26.862Z,51.45
2022-12-18T04:34:28.811Z,51.14
2022-12-18T04:36:30.515Z,52.17
2022-12-18T04:38:33.743Z,52.80
2022-12-18T04:40:39.146Z,52.33
2022-12-18T04:42:41.627Z,52.60
2022-12-18T04:44:43.407Z,52.32
2022-12-18T04:46:45.178Z,53.20
2022-12-18T04:48:47.712Z,53.79
2022-12-18T04:50:49.551Z,53.98
2022-12-18T04:52:51.429Z,53.87
2022-12-18T04:54:54.604Z,53.49
2022-12-18T04:56:56.428Z,53.14
2022-12-18T04:58:58.298Z,52.64
2022-12-18T05:01:00.282Z,52.19
2022-12-18T05:03:02.414Z,52.05
2022-12-18T05:05:04.948Z,51.72
2022-12-18T05:07:07.258Z,51.83
2022-12-18T05:09:09.586Z,51.67
2022-12-18T05:11:15.293Z,51.55
2022-12-18T05:13:17.125Z,51.47
2022-12-18T05:15:18.884Z,51.29
2022-12-18T05:17:20.742Z,51.03
2022-12-18T05:19:22.521Z,50.85
2022-12-18T05:21:25.511Z,50.61
2022-12-18T05:23:29.079Z,50.49
2022-12-18T05:25:30.724Z,50.24
2022-12-18T05:27:34.426Z,49.69
2022-12-18T05:29:36.090Z,50.02
2022-12-18T05:31:39.802Z,50.22
2022-12-18T05:33:42.053Z,49.94
2022-12-18T05:35:44.411Z,49.84
2022-12-18T05:37:46.497Z,50.16
2022-12-18T05:39:48.249Z,49.80
2022-12-18T05:41:49.994Z,50.05
2022-12-18T05:43:53.179Z,49.93
2022-12-18T05:45:55.341Z,49.86
2022-12-18T05:47:58.188Z,49.55
2022-12-18T05:49:59.957Z,49.94
2022-12-18T05:52:02.044Z,50.03
2022-12-18T05:54:04.080Z,50.44
2022-12-18T05:56:10.049Z,50.39
2022-12-18T05:58:13.987Z,50.38
2022-12-18T06:00:19.910Z,50.07
2022-12-18T06:02:21.596Z,50.55
2022-12-18T06:04:23.418Z,50.54
2022-12-18T06:06:27.222Z,50.80
2022-12-18T06:08:29.299Z,50.66
2022-12-18T06:10:31.414Z,50.75
2022-12-18T06:12:33.152Z,50.82
2022-12-18T06:14:34.970Z,50.61
2022-12-18T06:16:38.372Z,50.81
2022-12-18T06:18:43.300Z,50.79
2022-12-18T06:20:45.003Z,50.57
2022-12-18T06:22:47.209Z,50.86
2022-12-18T06:24:49.139Z,50.95
2022-12-18T06:26:50.867Z,51.26
2022-12-18T06:28:53.423Z,51.39
2022-12-18T06:30:55.609Z,52.07
2022-12-18T06:32:58.723Z,51.70
2022-12-18T06:35:00.831Z,52.44
2022-12-18T06:37:02.533Z,52.09
2022-12-18T06:39:04.541Z,52.81
2022-12-18T06:41:08.188Z,53.23
2022-12-18T06:43:09.896Z,52.85
2022-12-18T06:45:11.927Z,52.95
2022-12-18T06:47:16.315Z,52.79
2022-12-18T06:49:30.170Z,52.54
2022-12-18T06:51:32.292Z,52.58
2022-12-18T06:53:34.679Z,53.30
2022-12-18T06:55:36.464Z,53.27
2022-12-18T06:57:38.964Z,53.83
2022-12-18T06:59:40.782Z,53.46
2022-12-18T07:01:42.732Z,54.41
2022-12-18T07:03:45.252Z,54.76
2022-12-18T07:05:48.756Z,55.07
2022-12-18T07:07:50.442Z,55.13
2022-12-18T07:09:52.218Z,55.22
2022-12-18T07:11:54.071Z,55.21
2022-12-18T07:13:56.028Z,56.24
2022-12-18T07:16:07.662Z,56.65
2022-12-18T07:18:13.101Z,56.82
2022-12-18T07:20:15.423Z,57.28
2022-12-18T07:22:18.520Z,56.85
2022-12-18T07:24:20.279Z,57.16
2022-12-18T07:26:24.841Z,58.00
2022-12-18T07:28:26.692Z,58.22
2022-12-18T07:30:28.411Z,58.10
2022-12-18T07:32:31.361Z,58.30
2022-12-18T07:34:33.056Z,58.08
2022-12-18T07:36:37.942Z,58.23
2022-12-18T07:38:41.189Z,58.27
2022-12-18T07:40:44.213Z,58.63
2022-12-18T07:42:45.913Z,58.55
2022-12-18T07:44:47.658Z,58.04
2022-12-18T07:46:49.327Z,58.60
2022-12-18T07:48:51.135Z,58.55
2022-12-18T07:50:53.893Z,58.48
2022-12-18T07:52:55.673Z,58.89
2022-12-18T07:54:59.037Z,57.91
2022-12-18T07:57:01.248Z,58.37
2022-12-18T07:59:05.823Z,58.44
2022-12-18T08:01:09.631Z,58.04
2022-12-18T08:03:16.209Z,57.45
2022-12-18T08:05:20.566Z,56.96
2022-12-18T08:07:25.228Z,55.96
2022-12-18T08:09:27.299Z,55.78
2022-12-18T08:11:35.045Z,55.48
2022-12-18T08:13:38.660Z,55.44
2022-12-18T08:15:40.629Z,55.50
2022-12-18T08:17:42.607Z,55.39
2022-12-18T08:19:44.590Z,55.21
2022-12-18T08:21:46.360Z,54.73
2022-12-18T08:23:49.265Z,54.41
2022-12-18T08:25:52.951Z,54.53
2022-12-18T08:27:56.293Z,54.31
2022-12-18T08:29:58.218Z,53.91
2022-12-18T08:32:00.089Z,53.95
2022-12-18T08:34:01.923Z,53.69
2022-12-18T08:36:05.333Z,53.07
2022-12-18T08:38:07.130Z,52.69
2022-12-18T08:40:13.608Z,52.55
2022-12-18T08:42:15.869Z,52.74
2022-12-18T08:44:19.589Z,53.93
2022-12-18T08:46:23.354Z,53.66
2022-12-18T08:48:28.259Z,53.87
2022-12-18T08:50:30.179Z,54.36
2022-12-18T08:52:33.169Z,55.17
2022-12-18T08:54:34.922Z,55.18
2022-12-18T08:56:36.761Z,55.35
2022-12-18T08:58:38.625Z,55.63
2022-12-18T09:00:42.013Z,56.11
2022-12-18T09:02:49.767Z,56.70
2022-12-18T09:04:57.099Z,56.92
2022-12-18T09:06:59.402Z,57.45
2022-12-18T09:09:05.263Z,57.51
2022-12-18T09:11:13.829Z,57.93
2022-12-18T09:13:17.004Z,57.15
2022-12-18T09:15:18.920Z,56.48
2022-12-18T09:17:22.418Z,55.62
2022-12-18T09:19:24.506Z,54.61
2022-12-18T09:21:28.766Z,54.17
2022-12-18T09:23:33.659Z,53.83
2022-12-18T09:25:38.219Z,53.23
2022-12-18T09:27:40.001Z,52.72
2022-12-18T09:29:41.697Z,52.75
2022-12-18T09:31:43.483Z,52.78
2022-12-18T09:33:46.750Z,52.46
2022-12-18T09:35:48.761Z,52.19
2022-12-18T09:37:50.828Z,52.35
2022-12-18T09:39:52.722Z,51.63
2022-12-18T09:41:56.965Z,51.81
2022-12-18T09:44:02.457Z,51.48
2022-12-18T09:46:07.768Z,51.70
2022-12-18T09:48:15.380Z,51.59
2022-12-18T09:50:25.778Z,51.50
2022-12-18T09:52:33.545Z,51.09
2022-12-18T09:54:39.824Z,51.17
2022-12-18T09:56:43.777Z,51.78
2022-12-18T09:58:51.227Z,51.98
2022-12-18T10:00:52.844Z,51.82
2022-12-18T10:03:00.966Z,52.06
2022-12-18T10:05:12.564Z,52.49
2022-12-18T10:07:22.562Z,52.43
2022-12-18T10:09:34.966Z,52.24
2022-12-18T10:11:48.751Z,52.57
2022-12-18T10:13:55.319Z,51.98
2022-12-18T10:16:14.049Z,52.19
2022-12-18T10:18:26.415Z,52.65
2022-12-18T10:20:34.050Z,52.34
2022-12-18T10:22:44.963Z,52.29
2022-12-18T10:24:53.630Z,52.43
2022-12-18T10:27:05.715Z,52.17
2022-12-18T10:29:12.003Z,52.86
2022-12-18T10:31:17.226Z,52.56
2022-12-18T10:33:20.886Z,52.65
2022-12-18T10:35:24.981Z,52.19
2022-12-18T10:37:29.077Z,52.08
2022-12-18T10:39:32.041Z,51.95
2022-12-18T10:41:33.641Z,51.96
2022-12-18T10:43:37.056Z,51.23
2022-12-18T10:45:38.759Z,51.11
2022-12-18T10:47:44.289Z,51.13
2022-12-18T10:49:50.726Z,51.61
2022-12-18T10:52:04.641Z,51.67
2022-12-18T10:54:16.928Z,51.68
2022-12-18T10:56:21.592Z,51.65
2022-12-18T10:58:27.149Z,51.78
2022-12-18T11:00:30.935Z,51.27
2022-12-18T11:02:37.958Z,51.27
2022-12-18T11:04:52.628Z,51.04
2022-12-18T11:06:59.492Z,51.13
2022-12-18T11:09:05.341Z,50.85
2022-12-18T11:11:19.932Z,50.63
2022-12-18T11:13:24.706Z,50.63
2022-12-18T11:15:30.646Z,51.02
2022-12-18T11:17:34.168Z,51.05
2022-12-18T11:19:37.269Z,50.87
2022-12-18T11:21:40.888Z,50.93
2022-12-18T11:23:49.611Z,50.50
2022-12-18T11:26:04.596Z,49.99
2022-12-18T11:28:26.662Z,50.50
2022-12-18T11:30:32.223Z,50.25
2022-12-18T11:32:37.218Z,49.76
2022-12-18T11:34:39.336Z,50.28
2022-12-18T11:36:43.806Z,50.26
2022-12-18T11:38:48.443Z,50.14
2022-12-18T11:40:56.057Z,50.07
2022-12-18T11:43:07.709Z,49.42
2022-12-18T11:45:25.574Z,49.74
2022-12-18T11:47:38.108Z,49.96
2022-12-18T11:49:42.241Z,49.78
2022-12-18T11:51:49.667Z,49.16
2022-12-18T11:53:52.777Z,49.62
2022-12-18T11:56:20.949Z,49.53
2022-12-18T11:58:35.730Z,49.96
2022-12-18T12:00:43.782Z,49.66
2022-12-18T12:03:23.561Z,50.24
2022-12-18T12:05:46.047Z,50.56
2022-12-18T12:07:57.633Z,49.84
2022-12-18T12:10:13.058Z,50.35
2022-12-18T12:12:31.539Z,50.65
2022-12-18T12:14:48.250Z,50.50
2022-12-18T12:16:56.411Z,50.21
2022-12-18T12:19:14.594Z,50.32
2022-12-18T12:21:22.293Z,50.59
2022-12-18T12:23:32.883Z,50.80
2022-12-18T12:25:40.452Z,51.15
2022-12-18T12:27:54.014Z,51.09
2022-12-18T12:30:04.134Z,52.12
2022-12-18T12:32:17.615Z,51.92
2022-12-18T12:34:26.863Z,51.84
2022-12-18T12:36:39.579Z,52.06
2022-12-18T12:38:49.812Z,52.11
2022-12-18T12:41:03.124Z,52.92
2022-12-18T12:43:17.393Z,55.36
2022-12-18T12:45:24.175Z,56.07
2022-12-18T12:47:31.247Z,55.88
2022-12-18T12:49:40.284Z,55.65
2022-12-18T12:51:47.068Z,55.66
2022-12-18T12:53:50.334Z,55.86
2022-12-18T12:55:53.628Z,55.27
2022-12-18T12:58:03.568Z,55.65
2022-12-18T13:00:10.683Z,56.00
2022-12-18T13:02:19.270Z,55.77
2022-12-18T13:04:28.312Z,55.82
2022-12-18T13:06:44.573Z,55.76
2022-12-18T13:08:55.396Z,55.39
2022-12-18T13:10:59.976Z,55.49
2022-12-18T13:13:04.106Z,55.22
2022-12-18T13:15:21.601Z,54.79
2022-12-18T13:17:29.249Z,53.63
2022-12-18T13:19:34.299Z,53.51
2022-12-18T13:21:37.249Z,53.88
2022-12-18T13:23:42.289Z,54.24
2022-12-18T13:25:44.066Z,53.70
2022-12-18T13:28:06.507Z,53.60
2022-12-18T13:30:44.157Z,53.38
2022-12-18T13:32:45.943Z,52.37
2022-12-18T13:34:48.654Z,52.45
2022-12-18T13:36:53.588Z,52.14
2022-12-18T13:39:28.868Z,52.17
2022-12-18T13:41:35.825Z,51.94
2022-12-18T13:43:42.948Z,51.90
2022-12-18T13:45:48.811Z,51.64
2022-12-18T13:47:51.455Z,51.62
2022-12-18T13:49:53.798Z,51.81
2022-12-18T13:51:57.570Z,51.78
2022-12-18T13:54:02.385Z,51.81
2022-12-18T13:56:05.959Z,51.86
2022-12-18T13:58:07.859Z,51.66
2022-12-18T14:00:26.782Z,51.63
2022-12-18T14:02:29.667Z,51.85
2022-12-18T14:04:35.785Z,52.10
2022-12-18T14:06:37.682Z,51.56
2022-12-18T14:08:43.986Z,51.78
2022-12-18T14:10:49.951Z,52.02
2022-12-18T14:12:52.656Z,51.71
2022-12-18T14:14:55.202Z,51.54
2022-12-18T14:16:57.459Z,51.60
2022-12-18T14:19:02.237Z,52.37
2022-12-18T14:21:20.535Z,51.99
2022-12-18T14:23:31.026Z,52.31
2022-12-18T14:25:33.989Z,52.51
2022-12-18T14:27:39.337Z,53.04
2022-12-18T14:29:44.224Z,53.46
2022-12-18T14:31:45.798Z,53.65
2022-12-18T14:33:47.563Z,54.05
2022-12-18T14:35:58.188Z,54.88
2022-12-18T14:38:21.359Z,55.44
2022-12-18T14:40:23.248Z,55.63
2022-12-18T14:42:27.111Z,55.79
2022-12-18T14:44:39.116Z,55.91
2022-12-18T14:46:51.820Z,56.11
2022-12-18T14:48:55.436Z,56.37
2022-12-18T14:51:00.197Z,56.28
2022-12-18T14:53:01.988Z,55.87
2022-12-18T14:55:03.881Z,56.52
2022-12-18T14:57:22.057Z,55.74
2022-12-18T14:59:27.260Z,55.65
2022-12-18T15:01:32.596Z,55.89
2022-12-18T15:03:34.379Z,56.61
2022-12-18T15:05:36.672Z,56.26
2022-12-18T15:07:42.558Z,56.38
2022-12-18T15:10:04.059Z,56.94
2022-12-18T15:12:06.160Z,56.47
2022-12-18T15:14:32.249Z,55.95
2022-12-18T15:16:33.827Z,55.80
2022-12-18T15:18:42.389Z,56.25
2022-12-18T15:20:46.277Z,56.85
2022-12-18T15:22:48.700Z,56.61
2022-12-18T15:24:51.663Z,56.72
2022-12-18T15:26:54.054Z,56.23
2022-12-18T15:28:57.429Z,56.11
2022-12-18T15:31:02.951Z,56.03
2022-12-18T15:33:25.691Z,56.09
2022-12-18T15:35:27.427Z,55.61
2022-12-18T15:37:29.083Z,55.08
2022-12-18T15:39:30.611Z,55.36
2022-12-18T15:41:33.689Z,54.85
2022-12-18T15:43:39.776Z,54.74
2022-12-18T15:45:41.576Z,54.14
2022-12-18T15:47:44.550Z,54.27
2022-12-18T15:49:46.182Z,54.05
2022-12-18T15:51:52.952Z,54.00
2022-12-18T15:53:56.361Z,53.63
2022-12-18T15:56:01.175Z,53.31
2022-12-18T15:58:03.055Z,53.51
2022-12-18T16:00:05.743Z,53.21
2022-12-18T16:02:18.916Z,53.53
2022-12-18T16:04:23.209Z,53.05
2022-12-18T16:06:24.807Z,52.73
2022-12-18T16:08:26.363Z,53.21
2022-12-18T16:10:28.473Z,52.92
2022-12-18T16:12:30.110Z,52.67
2022-12-18T16:14:32.924Z,52.98
2022-12-18T16:16:34.463Z,52.87
2022-12-18T16:18:35.996Z,52.76
2022-12-18T16:20:39.668Z,53.04
2022-12-18T16:22:41.566Z,52.98
2022-12-18T16:24:43.287Z,52.94
2022-12-18T16:26:45.370Z,52.89
2022-12-18T16:28:48.605Z,52.62
2022-12-18T16:30:50.308Z,52.74
2022-12-18T16:32:51.940Z,52.44
2022-12-18T16:34:53.509Z,52.71
2022-12-18T16:37:01.713Z,52.31
2022-12-18T16:39:06.601Z,52.75
2022-12-18T16:41:21.191Z,52.84
2022-12-18T16:43:22.750Z,52.96
2022-12-18T16:45:31.869Z,53.37
2022-12-18T16:47:34.246Z,53.81
2022-12-18T16:49:36.087Z,53.60
2022-12-18T16:51:37.862Z,53.69
2022-12-18T16:53:41.737Z,54.17
2022-12-18T16:55:43.645Z,54.30
2022-12-18T16:57:45.248Z,54.20
2022-12-18T16:59:47.162Z,54.12
2022-12-18T17:01:48.946Z,54.00
2022-12-18T17:03:52.775Z,54.34
2022-12-18T17:05:54.597Z,54.06
2022-12-18T17:07:56.174Z,53.88
2022-12-18T17:09:59.277Z,53.69
2022-12-18T17:12:04.241Z,53.26
2022-12-18T17:14:07.833Z,53.46
2022-12-18T17:16:09.941Z,53.31
2022-12-18T17:18:11.522Z,53.33
2022-12-18T17:20:14.901Z,52.65
2022-12-18T17:22:16.486Z,52.94
2022-12-18T17:24:18.501Z,53.24
2022-12-18T17:26:21.900Z,53.15
2022-12-18T17:28:23.699Z,53.43
2022-12-18T17:30:25.277Z,52.81
2022-12-18T17:32:26.826Z,52.97
2022-12-18T17:34:28.547Z,53.59
2022-12-18T17:36:31.940Z,53.79
2022-12-18T17:38:33.761Z,53.46
2022-12-18T17:40:35.791Z,53.49
2022-12-18T17:42:38.907Z,53.62
2022-12-18T17:44:40.517Z,53.64
2022-12-18T17:46:42.875Z,53.42
2022-12-18T17:48:44.895Z,53.16
2022-12-18T17:50:46.538Z,53.15
2022-12-18T17:52:48.135Z,52.75
2022-12-18T17:54:49.798Z,52.82
2022-12-18T17:56:51.390Z,53.39
2022-12-18T17:58:54.501Z,53.45
2022-12-18T18:00:58.736Z,53.50
2022-12-18T18:03:00.513Z,53.91
2022-12-18T18:05:02.643Z,53.57
2022-12-18T18:07:04.165Z,53.40
2022-12-18T18:09:05.853Z,53.38
2022-12-18T18:11:16.783Z,53.43
2022-12-18T18:13:20.483Z,53.57
2022-12-18T18:15:23.520Z,53.89
2022-12-18T18:17:25.118Z,53.79
2022-12-18T18:19:26.647Z,53.50
2022-12-18T18:21:30.515Z,54.27
2022-12-18T18:23:32.921Z,54.03
2022-12-18T18:25:36.187Z,53.59
2022-12-18T18:27:38.898Z,53.75
2022-12-18T18:29:40.879Z,53.44
2022-12-18T18:31:46.357Z,53.41
2022-12-18T18:33:48.189Z,53.73
2022-12-18T18:35:54.427Z,53.50
2022-12-18T18:37:56.610Z,53.58
2022-12-18T18:40:01.302Z,53.28
2022-12-18T18:42:03.414Z,53.09
2022-12-18T18:44:05.534Z,53.38
2022-12-18T18:46:07.394Z,52.81
2022-12-18T18:48:10.444Z,52.72
2022-12-18T18:50:12.097Z,53.05
2022-12-18T18:52:13.723Z,52.75
2022-12-18T18:54:15.466Z,52.90
2022-12-18T18:56:56.391Z,53.19
2022-12-18T18:58:41.862Z,53.44
2022-12-18T19:00:43.679Z,53.63
2022-12-18T19:02:46.108Z,53.68
2022-12-18T19:04:49.262Z,54.12
2022-12-18T19:06:50.838Z,53.45
2022-12-18T19:08:53.506Z,53.85
2022-12-18T19:10:58.250Z,54.01
2022-12-18T19:12:59.969Z,54.74
2022-12-18T19:15:01.733Z,54.75
2022-12-18T19:17:04.780Z,53.98
2022-12-18T19:19:07.909Z,53.81
2022-12-18T19:21:11.239Z,53.50
2022-12-18T19:23:12.815Z,53.72
2022-12-18T19:25:14.533Z,54.04
2022-12-18T19:27:16.244Z,53.84
2022-12-18T19:29:17.889Z,53.91
2022-12-18T19:31:29.198Z,53.60
2022-12-18T19:33:44.186Z,53.12
2022-12-18T19:35:46.039Z,53.38
2022-12-18T19:37:49.738Z,53.15
2022-12-18T19:39:51.330Z,52.64
2022-12-18T19:41:53.129Z,52.97
2022-12-18T19:43:55.823Z,53.05
2022-12-18T19:45:57.480Z,53.42
2022-12-18T19:48:04.051Z,53.25
2022-12-18T19:50:07.499Z,53.07
2022-12-18T19:52:09.177Z,53.26
2022-12-18T19:54:16.975Z,53.67
2022-12-18T19:56:21.451Z,53.30
2022-12-18T19:58:23.143Z,53.55
2022-12-18T20:00:26.558Z,53.09
2022-12-18T20:02:28.407Z,52.86
2022-12-18T20:04:30.127Z,53.33
2022-12-18T20:06:34.446Z,53.77
2022-12-18T20:08:36.369Z,54.11
2022-12-18T20:10:39.393Z,53.71
2022-12-18T20:12:41.086Z,54.19
2022-12-18T20:14:42.755Z,53.88
2022-12-18T20:16:44.563Z,54.48
2022-12-18T20:18:46.935Z,54.06
2022-12-18T20:20:48.834Z,53.54
2022-12-18T20:22:52.278Z,53.65
2022-12-18T20:24:53.868Z,53.63
2022-12-18T20:26:57.342Z,53.70
2022-12-18T20:29:00.033Z,54.04
2022-12-18T20:31:03.678Z,54.17
2022-12-18T20:33:05.952Z,54.20
2022-12-18T20:35:07.995Z,54.04
2022-12-18T20:37:10.330Z,54.40
2022-12-18T20:39:14.329Z,54.89
2022-12-18T20:41:18.061Z,54.37
2022-12-18T20:43:21.021Z,54.42
2022-12-18T20:45:22.653Z,53.96
2022-12-18T20:47:24.278Z,54.09
2022-12-18T20:49:26.881Z,53.84
2022-12-18T20:51:28.480Z,54.34
2022-12-18T20:53:30.303Z,54.33
2022-12-18T20:55:31.900Z,54.65
2022-12-18T20:57:33.712Z,54.87
2022-12-18T20:59:39.930Z,55.82
2022-12-18T21:01:48.450Z,56.45
2022-12-18T21:03:51.092Z,56.39
2022-12-18T21:05:52.891Z,57.25
2022-12-18T21:07:54.405Z,57.22
2022-12-18T21:09:56.042Z,56.78
2022-12-18T21:11:57.660Z,57.22
2022-12-18T21:13:59.348Z,56.12
2022-12-18T21:16:02.539Z,56.39
2022-12-18T21:18:05.136Z,57.05
2022-12-18T21:20:08.303Z,56.43
2022-12-18T21:22:10.094Z,55.91
2022-12-18T21:24:12.211Z,55.50
2022-12-18T21:26:18.543Z,55.43
2022-12-18T21:28:20.120Z,55.11
2022-12-18T21:30:21.949Z,55.03
2022-12-18T21:32:24.887Z,54.38
2022-12-18T21:34:31.599Z,54.74
2022-12-18T21:36:34.147Z,55.17
2022-12-18T21:38:35.772Z,55.38
2022-12-18T21:40:38.966Z,55.99
2022-12-18T21:42:40.723Z,55.64
2022-12-18T21:44:43.302Z,55.77
2022-12-18T21:46:51.376Z,56.07
2022-12-18T21:48:57.950Z,55.64
2022-12-18T21:50:59.873Z,55.97
2022-12-18T21:53:01.549Z,55.75
2022-12-18T21:55:09.984Z,56.26
2022-12-18T21:57:13.701Z,56.23
2022-12-18T21:59:16.851Z,56.58
2022-12-18T22:01:18.487Z,56.90
2022-12-18T22:03:20.179Z,57.12
2022-12-18T22:05:23.288Z,57.02
2022-12-18T22:07:24.881Z,56.73
2022-12-18T22:09:26.428Z,56.23
2022-12-18T22:11:28.038Z,56.46
2022-12-18T22:13:29.713Z,55.80
2022-12-18T22:15:31.403Z,55.79
2022-12-18T22:17:33.308Z,55.21
2022-12-18T22:19:41.032Z,55.40
2022-12-18T22:21:47.618Z,55.20
2022-12-18T22:23:52.822Z,55.69
2022-12-18T22:25:54.444Z,54.78
2022-12-18T22:27:56.222Z,55.04
2022-12-18T22:29:57.827Z,54.70
2022-12-18T22:31:59.407Z,54.79
2022-12-18T22:34:01.133Z,54.30
2022-12-18T22:36:06.364Z,55.03
2022-12-18T22:38:09.343Z,55.95
2022-12-18T22:40:22.269Z,56.23
2022-12-18T22:42:25.645Z,56.21
2022-12-18T22:44:27.620Z,56.23
2022-12-18T22:46:31.766Z,56.38
2022-12-18T22:48:33.435Z,56.31
2022-12-18T22:50:34.969Z,55.95
2022-12-18T22:52:36.516Z,56.07
2022-12-18T22:54:39.482Z,55.71
2022-12-18T22:56:41.064Z,56.12
2022-12-18T22:58:42.891Z,55.55
2022-12-18T23:00:44.473Z,55.63
2022-12-18T23:02:46.206Z,55.48
2022-12-18T23:04:48.080Z,55.62
2022-12-18T23:06:49.682Z,55.98
2022-12-18T23:08:55.974Z,55.84
2022-12-18T23:10:59.188Z,56.04
2022-12-18T23:13:00.731Z,55.62
2022-12-18T23:15:02.248Z,55.94
2022-12-18T23:17:03.762Z,55.74
2022-12-18T23:19:05.548Z,55.80
2022-12-18T23:21:09.614Z,55.83
2022-12-18T23:23:11.725Z,56.13
2022-12-18T23:25:14.778Z,56.19
2022-12-18T23:27:17.649Z,55.58
2022-12-18T23:29:19.191Z,55.75
2022-12-18T23:31:23.562Z,56.14
2022-12-18T23:33:25.135Z,55.79
2022-12-18T23:35:26.911Z,55.33
2022-12-18T23:37:56.952Z,54.74
2022-12-18T23:39:50.062Z,55.46
2022-12-18T23:41:51.614Z,55.04
2022-12-18T23:43:54.661Z,55.07
2022-12-18T23:45:56.221Z,55.41
2022-12-18T23:47:57.769Z,55.27
2022-12-18T23:49:59.344Z,55.63
2022-12-18T23:52:01.078Z,55.38
2022-12-18T23:54:02.714Z,55.35
2022-12-18T23:56:08.808Z,55.74
2022-12-18T23:58:16.840Z,55.25
